Time;durP1;ratioP1;P1;durP2;ratioP2;P2;SDS_P1;SDS_P2;PMS_P1;PMS_P2;Temp;Humidity;BMP_temperature;BMP_pressure;BME280_temperature;BME280_humidity;BME280_pressure;Samples;Min_cycle;Max_cycle;Signal;HPM_P1;HPM_P2
2021/08/25 00:02:24;;;;;;;10.77;8.80;;;;;;;21.52;74.50;98619.69;5064523;28;20286;-77
2021/08/25 00:04:54;;;;;;;11.27;9.33;;;;;;;21.82;71.95;98609.16;5053273;28;20201;-78
2021/08/25 00:07:22;;;;;;;12.63;9.30;;;;;;;22.08;70.39;98611.00;5054612;28;20198;-78
2021/08/25 00:09:50;;;;;;;11.07;9.23;;;;;;;21.65;73.17;98614.69;5063742;28;20227;-78
2021/08/25 00:12:17;;;;;;;11.63;9.30;;;;;;;21.68;73.30;98616.91;5062605;28;20225;-77
2021/08/25 00:14:45;;;;;;;13.80;9.17;;;;;;;21.89;72.02;98616.03;5057761;28;20216;-78
2021/08/25 00:17:13;;;;;;;11.80;9.07;;;;;;;21.52;74.79;98623.25;5061920;28;20206;-79
2021/08/25 00:19:41;;;;;;;12.20;8.67;;;;;;;21.36;75.02;98617.91;5069184;28;20646;-77
2021/08/25 00:22:11;;;;;;;13.77;9.47;;;;;;;21.48;75.43;98616.69;5060224;28;20220;-78
2021/08/25 00:24:39;;;;;;;11.83;9.50;;;;;;;21.26;77.00;98615.06;5048292;28;20214;-78
2021/08/25 00:27:06;;;;;;;12.30;9.50;;;;;;;21.01;77.96;98618.31;5052558;28;20214;-77
2021/08/25 00:29:34;;;;;;;12.60;9.17;;;;;;;21.14;77.47;98614.41;5062598;28;20225;-78
2021/08/25 00:32:01;;;;;;;10.90;9.10;;;;;;;20.88;80.24;98609.69;5063000;28;20724;-79
2021/08/25 00:34:29;;;;;;;16.03;9.87;;;;;;;21.34;76.87;98610.00;5054584;28;20823;-80
2021/08/25 00:36:56;;;;;;;13.07;9.90;;;;;;;20.93;78.95;98604.38;5060706;28;20207;-80
2021/08/25 00:39:25;;;;;;;12.33;9.73;;;;;;;21.30;75.45;98608.88;5067510;28;20673;-79
2021/08/25 00:41:52;;;;;;;17.57;9.77;;;;;;;21.12;76.67;98595.63;5059148;28;20315;-77
2021/08/25 00:44:19;;;;;;;12.80;9.40;;;;;;;21.17;76.34;98601.13;5053332;28;20209;-77
2021/08/25 00:46:47;;;;;;;10.63;8.80;;;;;;;21.07;76.93;98594.78;5052605;28;20210;-78
2021/08/25 00:49:14;;;;;;;12.97;9.17;;;;;;;20.64;80.03;98590.13;5062445;28;20600;-78
2021/08/25 00:51:45;;;;;;;12.90;9.60;;;;;;;21.08;76.48;98591.78;5061756;28;20220;-79
2021/08/25 00:54:12;;;;;;;13.70;9.63;;;;;;;20.93;77.40;98593.50;5058759;28;20202;-78
2021/08/25 00:56:41;;;;;;;11.73;9.40;;;;;;;20.91;77.59;98592.91;5054949;28;20210;-79
2021/08/25 00:59:08;;;;;;;12.87;9.30;;;;;;;20.56;80.85;98592.41;5061124;28;20205;-79
2021/08/25 01:01:44;;;;;;;18.40;10.10;;;;;;;20.56;81.16;98595.13;5054821;28;20234;-78
2021/08/25 01:04:17;;;;;;;13.07;9.57;;;;;;;20.78;79.59;98601.41;5053726;28;20679;-79
2021/08/25 01:06:49;;;;;;;13.27;9.63;;;;;;;20.80;79.63;98601.97;5062551;28;20197;-79
2021/08/25 01:09:16;;;;;;;14.70;10.00;;;;;;;20.49;81.76;98587.19;5069519;28;20212;-79
2021/08/25 01:11:47;;;;;;;12.43;9.43;;;;;;;20.30;80.59;98598.56;5070160;28;20227;-79
2021/08/25 01:14:15;;;;;;;14.53;9.97;;;;;;;20.36;82.16;98590.25;5062157;28;20206;-79
2021/08/25 01:16:43;;;;;;;13.17;9.43;;;;;;;20.57;81.12;98592.19;5063980;28;20201;-78
2021/08/25 01:19:14;;;;;;;10.93;9.47;;;;;;;20.15;84.38;98592.91;5060013;28;20209;-79
2021/08/25 01:21:42;;;;;;;13.63;9.37;;;;;;;20.55;81.42;98585.34;5069881;28;20223;-78
2021/08/25 01:24:11;;;;;;;15.40;9.33;;;;;;;20.53;82.33;98582.09;5063791;28;20198;-78
2021/08/25 01:26:39;;;;;;;14.50;9.43;;;;;;;20.12;83.03;98590.69;5061372;28;20212;-78
2021/08/25 01:29:15;;;;;;;13.83;10.70;;;;;;;20.56;79.39;98573.44;5072895;28;20329;-78
2021/08/25 01:31:42;;;;;;;13.60;10.40;;;;;;;20.33;81.56;98568.25;5063730;28;20242;-79
2021/08/25 01:34:09;;;;;;;11.80;8.87;;;;;;;20.38;79.59;98566.44;5059325;28;20295;-79
2021/08/25 01:36:37;;;;;;;14.83;10.17;;;;;;;20.45;80.71;98563.53;5060624;28;20201;-79
2021/08/25 01:39:05;;;;;;;14.27;9.77;;;;;;;20.47;80.03;98561.41;5075325;28;20197;-79
2021/08/25 01:41:32;;;;;;;16.13;10.20;;;;;;;20.45;79.30;98563.53;5055348;28;20592;-79
2021/08/25 01:44:01;;;;;;;12.00;9.57;;;;;;;20.39;80.51;98551.81;5058595;28;20206;-79
2021/08/25 01:46:32;;;;;;;11.77;9.07;;;;;;;20.36;81.16;98556.91;5050201;28;20206;-79
2021/08/25 01:49:00;;;;;;;12.97;10.53;;;;;;;20.18;82.47;98551.75;5063332;28;20209;-79
2021/08/25 01:51:28;;;;;;;14.53;10.37;;;;;;;20.30;79.77;98555.19;5064200;28;20226;-79
2021/08/25 01:53:56;;;;;;;13.53;9.27;;;;;;;20.16;82.00;98549.28;5065602;28;20210;-78
2021/08/25 01:56:23;;;;;;;14.90;10.47;;;;;;;20.24;80.40;98558.88;5046716;28;20202;-79
2021/08/25 01:58:51;;;;;;;13.90;10.20;;;;;;;20.17;81.08;98561.75;5063882;28;20633;-79
2021/08/25 02:01:18;;;;;;;17.63;11.10;;;;;;;20.27;79.50;98566.53;5064781;28;20617;-77
2021/08/25 02:03:47;;;;;;;16.03;10.60;;;;;;;20.19;80.16;98570.50;5059057;28;20585;-79
2021/08/25 02:06:14;;;;;;;15.07;10.47;;;;;;;19.92;82.52;98574.09;5059618;28;20941;-79
2021/08/25 02:08:42;;;;;;;15.17;11.07;;;;;;;19.70;84.35;98568.56;5060108;28;20293;-79
2021/08/25 02:11:09;;;;;;;16.57;11.40;;;;;;;19.87;84.55;98569.38;5073538;28;20560;-78
2021/08/25 02:13:37;;;;;;;14.70;10.67;;;;;;;20.02;81.79;98566.13;5062391;28;20573;-79
2021/08/25 02:16:04;;;;;;;14.53;10.90;;;;;;;19.94;83.23;98559.22;5059930;28;20208;-79
2021/08/25 02:18:32;;;;;;;16.63;11.77;;;;;;;19.99;82.84;98562.00;5073553;28;20205;-79
2021/08/25 02:21:01;;;;;;;15.47;11.97;;;;;;;20.00;82.23;98558.22;5071386;28;20296;-79
2021/08/25 02:23:28;;;;;;;15.20;11.37;;;;;;;20.09;82.05;98554.06;5071544;28;20667;-79
2021/08/25 02:25:55;;;;;;;14.17;11.07;;;;;;;19.97;82.50;98547.06;5055389;28;20214;-79
2021/08/25 02:28:23;;;;;;;17.97;11.77;;;;;;;19.70;85.58;98544.19;5062791;28;20198;-79
2021/08/25 02:30:50;;;;;;;17.17;11.40;;;;;;;19.90;82.29;98546.41;5069982;28;20206;-79
2021/08/25 02:33:17;;;;;;;15.27;11.03;;;;;;;19.74;85.15;98541.81;5063532;28;20199;-79
2021/08/25 02:35:45;;;;;;;16.53;12.33;;;;;;;19.79;84.20;98548.16;5054829;28;20202;-79
2021/08/25 02:38:13;;;;;;;16.47;12.00;;;;;;;19.89;83.86;98552.88;5066675;28;20202;-78
2021/08/25 02:40:41;;;;;;;16.13;11.13;;;;;;;20.34;79.65;98546.31;5066431;28;20837;-76
2021/08/25 02:43:09;;;;;;;14.57;10.67;;;;;;;20.19;79.68;98547.97;5056346;28;20219;-78
2021/08/25 02:45:36;;;;;;;15.80;10.93;;;;;;;20.08;80.98;98543.47;5054996;28;20210;-78
2021/08/25 02:48:03;;;;;;;15.47;11.20;;;;;;;20.54;77.52;98549.31;5060816;28;20203;-77
2021/08/25 02:50:31;;;;;;;13.87;10.53;;;;;;;20.44;77.96;98543.75;5073505;28;20702;-78
2021/08/25 02:52:58;;;;;;;15.37;10.47;;;;;;;20.13;78.75;98527.28;5067131;28;20230;-78
2021/08/25 02:55:27;;;;;;;16.60;12.10;;;;;;;19.45;84.81;98526.72;5053765;28;20737;-78
2021/08/25 02:57:54;;;;;;;16.73;11.77;;;;;;;19.52;85.76;98528.19;5059366;28;20206;-78
2021/08/25 03:00:22;;;;;;;15.43;11.70;;;;;;;19.95;82.62;98535.66;5068230;28;20192;-77
2021/08/25 03:02:49;;;;;;;16.97;11.67;;;;;;;19.98;82.23;98524.31;5069458;28;20220;-78
2021/08/25 03:05:16;;;;;;;16.43;10.87;;;;;;;20.03;81.87;98524.41;5053437;28;20210;-78
2021/08/25 03:07:44;;;;;;;15.10;11.00;;;;;;;20.19;80.72;98529.00;5071912;28;20215;-78
2021/08/25 03:10:11;;;;;;;15.67;11.27;;;;;;;20.06;80.89;98513.88;5069575;28;20958;-77
2021/08/25 03:12:40;;;;;;;17.80;12.17;;;;;;;20.14;80.62;98515.38;5067449;28;20224;-81
2021/08/25 03:15:08;;;;;;;16.47;11.73;;;;;;;20.19;80.15;98515.44;5058825;28;20198;-77
2021/08/25 03:17:36;;;;;;;16.03;11.60;;;;;;;19.59;83.29;98517.19;5061856;28;20209;-78
2021/08/25 03:20:04;;;;;;;16.17;11.53;;;;;;;19.97;82.63;98517.28;5071133;28;20299;-78
2021/08/25 03:22:32;;;;;;;17.37;12.30;;;;;;;19.22;86.04;98510.59;5056708;28;20222;-78
2021/08/25 03:24:59;;;;;;;18.73;12.17;;;;;;;19.78;82.49;98514.00;5052994;28;20220;-78
2021/08/25 03:27:26;;;;;;;18.40;12.17;;;;;;;19.72;83.50;98508.75;5063962;28;20580;-77
2021/08/25 03:29:55;;;;;;;17.63;11.97;;;;;;;19.57;84.08;98506.63;5062096;28;20223;-78
2021/08/25 03:32:22;;;;;;;16.17;12.27;;;;;;;19.63;83.04;98515.63;5055712;28;20291;-78
2021/08/25 03:34:50;;;;;;;17.23;11.83;;;;;;;19.95;80.52;98513.97;5054251;28;20228;-78
2021/08/25 03:37:18;;;;;;;15.80;11.70;;;;;;;20.09;80.42;98501.75;5054997;28;20285;-77
2021/08/25 03:39:45;;;;;;;15.93;12.17;;;;;;;20.24;79.95;98510.94;5059446;28;20564;-78
2021/08/25 03:42:13;;;;;;;17.17;12.27;;;;;;;20.02;79.68;98511.94;5070565;28;20221;-78
2021/08/25 03:44:40;;;;;;;20.27;12.90;;;;;;;19.50;81.92;98511.38;5052566;28;20297;-77
2021/08/25 03:47:10;;;;;;;16.83;12.43;;;;;;;20.28;77.94;98506.66;5053738;28;20211;-78
2021/08/25 03:49:38;;;;;;;17.57;12.53;;;;;;;20.16;77.76;98503.22;5071528;28;20222;-78
2021/08/25 03:52:06;;;;;;;15.33;11.10;;;;;;;19.54;81.76;98504.41;5070080;28;20217;-78
2021/08/25 03:54:33;;;;;;;19.33;11.97;;;;;;;19.80;80.89;98501.03;5061035;28;20209;-78
2021/08/25 03:57:00;;;;;;;18.70;12.43;;;;;;;19.55;82.20;98497.09;5061143;28;20199;-78
2021/08/25 03:59:28;;;;;;;18.27;11.70;;;;;;;19.73;80.80;98496.84;5063528;28;20196;-78
2021/08/25 04:01:55;;;;;;;15.93;11.90;;;;;;;19.55;80.72;98491.69;5062104;28;20217;-78
2021/08/25 04:04:24;;;;;;;15.33;11.40;;;;;;;19.44;82.59;98492.56;5059787;28;20206;-78
2021/08/25 04:06:51;;;;;;;16.40;12.10;;;;;;;20.02;78.74;98503.78;5047112;28;20294;-78
2021/08/25 04:09:18;;;;;;;17.77;11.73;;;;;;;19.98;77.46;98498.06;5071128;28;20697;-78
2021/08/25 04:11:45;;;;;;;16.90;12.43;;;;;;;19.68;78.54;98483.22;5070924;28;20229;-79
2021/08/25 04:14:13;;;;;;;17.87;11.83;;;;;;;19.48;80.56;98488.31;5055368;28;20209;-79
2021/08/25 04:16:40;;;;;;;20.30;11.93;;;;;;;19.41;81.39;98488.47;5053190;28;20194;-79
2021/08/25 04:19:07;;;;;;;16.60;11.70;;;;;;;19.39;81.88;98495.19;5065540;28;20208;-79
2021/08/25 04:21:36;;;;;;;17.70;11.73;;;;;;;19.62;79.91;98495.03;5053965;28;20214;-78
2021/08/25 04:24:03;;;;;;;15.70;11.57;;;;;;;19.67;79.73;98492.41;5063564;28;20206;-79
2021/08/25 04:26:31;;;;;;;16.77;11.80;;;;;;;19.48;81.43;98489.13;5045413;28;20190;-79
2021/08/25 04:28:58;;;;;;;17.57;11.90;;;;;;;19.78;79.28;98486.09;5064321;28;20214;-79
2021/08/25 04:31:25;;;;;;;20.00;11.73;;;;;;;19.78;78.19;98488.78;5069122;28;20220;-79
2021/08/25 04:33:52;;;;;;;16.80;11.40;;;;;;;19.54;79.10;98498.16;5060709;28;20204;-78
2021/08/25 04:36:20;;;;;;;19.43;11.83;;;;;;;19.82;78.37;98487.25;5057606;28;20202;-79
2021/08/25 04:38:48;;;;;;;18.50;12.70;;;;;;;19.95;77.34;98501.25;5061681;28;20202;-79
2021/08/25 04:41:16;;;;;;;18.63;12.80;;;;;;;19.88;77.74;98494.38;5073832;28;20304;-78
2021/08/25 04:43:43;;;;;;;19.03;11.90;;;;;;;19.89;76.61;98499.53;5070859;28;20274;-79
2021/08/25 04:46:14;;;;;;;16.77;12.53;;;;;;;19.42;80.28;98492.00;5078430;28;20228;-77
2021/08/25 04:48:41;;;;;;;18.50;12.17;;;;;;;19.99;79.14;98498.84;5070971;28;20201;-79
2021/08/25 04:51:10;;;;;;;18.37;12.83;;;;;;;20.22;75.50;98504.13;5079652;28;20226;-77
2021/08/25 04:53:37;;;;;;;18.17;13.40;;;;;;;19.81;78.14;98491.03;5055254;28;20319;-78
2021/08/25 04:56:07;;;;;;;19.77;12.60;;;;;;;20.13;77.06;98495.59;5059864;28;20232;-78
2021/08/25 04:58:34;;;;;;;17.53;11.97;;;;;;;20.22;76.02;98493.28;5069498;28;20208;-77
2021/08/25 05:01:01;;;;;;;24.10;12.83;;;;;;;19.91;77.00;98497.38;5056314;28;20685;-76
2021/08/25 05:03:29;;;;;;;19.20;13.67;;;;;;;20.09;77.39;98493.63;5045377;28;20284;-76
2021/08/25 05:05:56;;;;;;;20.43;12.83;;;;;;;20.11;77.17;98494.22;5051698;28;20526;-76
2021/08/25 05:08:23;;;;;;;16.47;12.53;;;;;;;19.72;81.00;98500.63;5060496;28;20579;-77
2021/08/25 05:10:51;;;;;;;18.63;12.83;;;;;;;19.84;80.99;98494.03;5066562;28;20224;-76
2021/08/25 05:13:19;;;;;;;16.43;12.67;;;;;;;20.08;79.31;98502.81;5059312;28;20294;-76
2021/08/25 05:15:47;;;;;;;17.43;12.80;;;;;;;20.35;77.81;98501.84;5042267;28;20210;-76
2021/08/25 05:18:14;;;;;;;17.77;12.70;;;;;;;20.42;77.11;98501.69;5051595;28;20191;-76
2021/08/25 05:20:42;;;;;;;20.27;13.80;;;;;;;20.50;76.10;98502.06;5047479;28;20209;-76
2021/08/25 05:23:09;;;;;;;19.63;13.10;;;;;;;21.08;73.74;98502.22;5047430;28;20681;-74
2021/08/25 05:25:37;;;;;;;20.70;12.53;;;;;;;21.21;72.47;98503.69;5047351;28;20219;-76
2021/08/25 05:28:04;;;;;;;17.83;12.03;;;;;;;20.93;75.14;98498.53;5057331;28;20206;-77
2021/08/25 05:30:33;;;;;;;22.40;13.97;;;;;;;20.52;78.14;98490.97;5063188;28;20267;-76
2021/08/25 05:33:00;;;;;;;16.33;12.13;;;;;;;20.27;78.93;98507.69;5061275;28;20231;-76
2021/08/25 05:35:28;;;;;;;15.63;11.77;;;;;;;20.80;77.12;98513.28;5055762;28;20201;-79
2021/08/25 05:37:55;;;;;;;17.73;12.67;;;;;;;19.42;84.07;98502.84;5044876;28;20219;-78
2021/08/25 05:40:22;;;;;;;20.50;11.60;;;;;;;20.90;76.71;98516.16;5050742;28;20198;-79
2021/08/25 05:42:50;;;;;;;15.73;11.20;;;;;;;20.53;75.99;98512.38;5055091;28;20232;-79
2021/08/25 05:45:17;;;;;;;13.93;10.90;;;;;;;21.72;69.08;98506.66;5072089;28;20200;-80
2021/08/25 05:47:45;;;;;;;15.00;10.37;;;;;;;21.23;71.44;98512.44;5060679;28;20205;-79
2021/08/25 05:50:13;;;;;;;14.70;9.93;;;;;;;21.82;68.79;98509.44;5052063;28;20233;-79
2021/08/25 05:52:40;;;;;;;15.83;10.70;;;;;;;21.05;71.92;98515.47;5053556;28;20737;-78
2021/08/25 05:55:08;;;;;;;14.33;9.77;;;;;;;21.41;69.54;98506.59;5051993;28;20208;-79
2021/08/25 05:57:41;;;;;;;11.83;9.53;;;;;;;21.23;70.77;98518.66;5052906;28;20291;-78
2021/08/25 06:00:10;;;;;;;14.23;10.00;;;;;;;21.10;71.26;98505.50;5070435;28;20250;-79
2021/08/25 06:02:37;;;;;;;14.23;9.40;;;;;;;20.73;74.23;98501.78;5059715;28;20228;-81
2021/08/25 06:05:07;;;;;;;12.37;9.50;;;;;;;20.21;75.47;98507.91;5071439;28;20201;-81
2021/08/25 06:07:34;;;;;;;13.77;9.10;;;;;;;19.56;81.66;98501.44;5053389;28;20228;-81
2021/08/25 06:10:02;;;;;;;13.23;9.47;;;;;;;20.68;74.57;98511.78;5057272;28;20615;-78
2021/08/25 06:12:29;;;;;;;14.37;9.93;;;;;;;20.10;77.40;98514.22;5057321;28;20316;-75
2021/08/25 06:14:56;;;;;;;15.83;9.00;;;;;;;20.78;74.30;98520.03;5073702;28;20203;-79
2021/08/25 06:17:24;;;;;;;13.53;9.33;;;;;;;20.94;71.87;98506.44;5059259;28;20212;-77
2021/08/25 06:19:51;;;;;;;14.97;9.20;;;;;;;20.92;74.16;98499.63;5059003;28;20196;-80
2021/08/25 06:22:20;;;;;;;14.50;9.70;;;;;;;21.27;70.56;98510.81;5057265;28;20307;-78
2021/08/25 06:24:47;;;;;;;12.90;9.17;;;;;;;21.92;67.28;98506.81;5054655;28;20217;-79
2021/08/25 06:27:14;;;;;;;14.93;9.27;;;;;;;21.23;67.75;98501.56;5065255;28;20201;-75
2021/08/25 06:29:42;;;;;;;9.77;8.27;;;;;;;21.71;67.53;98488.72;5062292;28;20569;-78
2021/08/25 06:32:09;;;;;;;12.77;8.87;;;;;;;20.45;72.51;98487.59;5055272;28;20236;-79
2021/08/25 06:34:36;;;;;;;15.13;8.40;;;;;;;21.38;69.42;98488.13;5063373;28;20438;-78
2021/08/25 06:37:04;;;;;;;11.10;8.23;;;;;;;20.90;73.13;98482.75;5074896;28;20203;-78
2021/08/25 06:39:33;;;;;;;12.80;8.83;;;;;;;20.73;72.03;98495.56;5055592;28;20209;-77
2021/08/25 06:42:00;;;;;;;12.67;8.03;;;;;;;21.29;69.42;98497.81;5050727;28;20232;-78
2021/08/25 06:44:27;;;;;;;12.50;8.37;;;;;;;21.48;68.86;98497.16;5060405;28;20205;-78
2021/08/25 06:46:55;;;;;;;12.97;8.10;;;;;;;22.01;65.57;98493.53;5059376;28;20206;-77
2021/08/25 06:49:22;;;;;;;13.00;7.93;;;;;;;21.91;64.27;98507.88;5065961;28;20204;-78
2021/08/25 06:51:49;;;;;;;9.97;7.43;;;;;;;21.58;66.02;98501.88;5074147;28;20311;-78
2021/08/25 06:54:17;;;;;;;11.40;7.97;;;;;;;22.20;62.85;98506.44;5074740;28;20232;-79
2021/08/25 06:56:46;;;;;;;14.80;7.90;;;;;;;22.66;61.49;98504.81;5070617;28;20193;-77
2021/08/25 06:59:13;;;;;;;12.20;7.93;;;;;;;21.99;64.36;98498.44;5056426;28;20209;-78
2021/08/25 07:01:41;;;;;;;12.23;7.27;;;;;;;21.87;65.60;98500.50;5065680;28;20217;-77
2021/08/25 07:04:08;;;;;;;10.20;7.40;;;;;;;21.39;67.30;98490.56;5071482;28;20209;-78
2021/08/25 07:06:35;;;;;;;10.30;7.37;;;;;;;22.92;60.43;98492.91;5069282;28;20209;-79
2021/08/25 07:09:03;;;;;;;11.10;7.57;;;;;;;22.40;62.07;98484.78;5070610;28;20575;-79
2021/08/25 07:11:30;;;;;;;10.10;7.70;;;;;;;22.85;59.81;98495.09;5070897;28;20311;-80
2021/08/25 07:13:59;;;;;;;11.17;7.20;;;;;;;23.74;53.72;98502.59;5064935;28;20194;-79
2021/08/25 07:16:26;;;;;;;12.27;7.23;;;;;;;24.05;54.24;98493.34;5055657;28;20357;-78
2021/08/25 07:18:54;;;;;;;8.53;6.67;;;;;;;22.37;60.64;98481.78;5053191;28;20205;-78
2021/08/25 07:21:21;;;;;;;10.50;6.80;;;;;;;22.87;58.43;98490.19;5064237;28;20227;-79
2021/08/25 07:23:50;;;;;;;9.03;6.60;;;;;;;24.14;53.54;98488.97;5073996;28;20209;-78
2021/08/25 07:26:18;;;;;;;10.90;6.43;;;;;;;24.17;52.65;98490.31;5068966;28;20241;-78
2021/08/25 07:28:45;;;;;;;8.03;5.97;;;;;;;23.35;55.21;98479.69;5074023;28;20204;-78
2021/08/25 07:31:14;;;;;;;9.63;6.07;;;;;;;23.54;54.28;98482.69;5059478;28;20257;-78
2021/08/25 07:33:42;;;;;;;7.87;5.90;;;;;;;23.44;56.51;98472.63;5058640;28;20659;-78
2021/08/25 07:36:10;;;;;;;8.40;6.20;;;;;;;24.28;51.14;98486.47;5073637;28;20207;-80
2021/08/25 07:38:37;;;;;;;9.60;6.07;;;;;;;23.19;56.73;98477.22;5073835;28;20216;-78
2021/08/25 07:41:05;;;;;;;8.67;6.23;;;;;;;23.81;51.54;98488.72;5057176;28;20199;-78
2021/08/25 07:43:33;;;;;;;7.47;5.80;;;;;;;23.41;53.50;98481.31;5066954;28;20203;-83
2021/08/25 07:46:00;;;;;;;8.10;6.10;;;;;;;23.11;56.15;98472.28;5063738;28;20207;-78
2021/08/25 07:48:29;;;;;;;9.83;5.20;;;;;;;23.41;54.00;98475.09;5053851;28;20203;-80
2021/08/25 07:50:56;;;;;;;11.73;5.87;;;;;;;23.71;53.34;98488.72;5060376;28;20308;-78
2021/08/25 07:53:24;;;;;;;9.30;5.57;;;;;;;24.03;52.82;98484.63;5070888;28;20224;-78
2021/08/25 07:55:52;;;;;;;8.13;6.40;;;;;;;23.47;53.23;98488.41;5053597;28;20669;-81
2021/08/25 07:58:19;;;;;;;7.93;5.20;;;;;;;23.33;54.05;98481.06;5071450;28;20215;-79
2021/08/25 08:00:46;;;;;;;7.33;5.23;;;;;;;24.27;51.53;98487.56;5065465;28;20214;-78
2021/08/25 08:03:14;;;;;;;7.27;4.93;;;;;;;24.24;53.35;98482.66;5055739;28;20212;-78
2021/08/25 08:05:44;;;;;;;6.93;5.53;;;;;;;24.10;50.94;98482.41;5057867;28;20197;-76
2021/08/25 08:08:11;;;;;;;9.33;5.27;;;;;;;25.08;47.55;98500.63;5057792;28;20205;-77
2021/08/25 08:10:39;;;;;;;6.27;5.30;;;;;;;22.91;54.99;98483.13;5073502;28;20225;-76
2021/08/25 08:13:06;;;;;;;7.97;5.20;;;;;;;23.41;53.05;98486.78;5060374;28;20231;-78
2021/08/25 08:15:36;;;;;;;6.10;4.83;;;;;;;24.16;53.25;98481.31;5067350;28;20207;-77
2021/08/25 08:18:09;;;;;;;7.47;5.27;;;;;;;23.30;56.46;98476.16;5052505;28;20206;-79
2021/08/25 08:20:36;;;;;;;7.87;5.47;;;;;;;24.33;52.39;98486.47;5059629;28;20537;-80
2021/08/25 08:23:05;;;;;;;7.40;5.30;;;;;;;24.94;50.24;98488.66;5063156;28;20309;-81
2021/08/25 08:25:33;;;;;;;6.60;5.23;;;;;;;25.05;50.79;98489.44;5048726;28;20220;-76
2021/08/25 08:28:00;;;;;;;6.93;5.20;;;;;;;25.04;50.15;98487.81;5048575;28;20205;-77
2021/08/25 08:30:27;;;;;;;9.00;5.93;;;;;;;24.51;50.06;98489.41;5063065;28;20208;-75
2021/08/25 08:32:55;;;;;;;7.80;5.20;;;;;;;24.82;50.73;98480.00;5066649;28;20244;-75
2021/08/25 08:35:22;;;;;;;10.27;5.50;;;;;;;25.22;48.26;98481.69;5050924;28;20205;-75
2021/08/25 08:37:50;;;;;;;6.20;5.20;;;;;;;25.77;46.58;98484.84;5052964;28;20201;-77
2021/08/25 08:40:18;;;;;;;7.40;4.70;;;;;;;25.79;45.24;98488.13;5064625;28;20207;-75
2021/08/25 08:42:46;;;;;;;6.27;4.73;;;;;;;23.76;50.34;98477.81;5064301;28;20221;-77
2021/08/25 08:45:13;;;;;;;6.53;4.27;;;;;;;25.56;44.76;98480.66;5072275;28;20717;-77
2021/08/25 08:47:41;;;;;;;5.80;4.40;;;;;;;25.96;44.28;98485.00;5065559;28;20205;-78
2021/08/25 08:50:08;;;;;;;7.57;4.17;;;;;;;24.94;45.87;98498.81;5045808;28;20671;-77
2021/08/25 08:52:36;;;;;;;7.57;4.30;;;;;;;25.43;45.80;98496.91;5047522;28;20605;-78
2021/08/25 08:55:03;;;;;;;6.63;4.70;;;;;;;24.03;50.31;98478.34;5068460;28;20276;-75
2021/08/25 08:57:32;;;;;;;7.47;4.63;;;;;;;25.67;44.44;98486.84;5052458;28;20263;-77
2021/08/25 09:00:00;;;;;;;5.60;4.40;;;;;;;24.88;47.02;98489.81;5062908;28;20209;-80
2021/08/25 09:02:43;;;;;;;6.70;4.37;;;;;;;24.80;46.37;98489.56;5052712;28;20217;-79
2021/08/25 09:05:19;;;;;;;7.93;5.30;;;;;;;24.13;48.96;98479.16;5051776;28;20205;-76
2021/08/25 09:07:54;;;;;;;6.37;4.70;;;;;;;24.96;46.57;98485.66;5059357;28;20212;-76
2021/08/25 09:10:26;;;;;;;7.27;4.90;;;;;;;25.14;45.59;98483.09;5064760;28;20189;-77
2021/08/25 09:12:57;;;;;;;6.33;4.30;;;;;;;26.23;43.28;98474.31;5075263;28;20289;-76
2021/08/25 09:15:26;;;;;;;6.63;3.97;;;;;;;25.99;43.01;98478.97;5052782;28;20202;-79
2021/08/25 09:17:58;;;;;;;5.00;3.87;;;;;;;25.87;39.88;98490.25;5049439;28;20259;-81
2021/08/25 09:20:26;;;;;;;6.30;3.60;;;;;;;26.94;40.24;98477.84;5060217;28;20213;-82
2021/08/25 09:23:12;;;;;;;4.27;3.37;;;;;;;27.34;39.99;98483.63;5076051;28;20227;-78
2021/08/25 09:25:40;;;;;;;5.50;3.90;;;;;;;23.99;46.37;98477.25;5077565;28;20217;-82
2021/08/25 09:28:10;;;;;;;5.43;4.23;;;;;;;25.43;43.73;98473.09;5069280;28;20233;-83
2021/08/25 09:30:52;;;;;;;5.47;4.03;;;;;;;25.06;45.53;98469.22;5049901;28;20483;-82
2021/08/25 09:33:20;;;;;;;5.60;4.23;;;;;;;26.05;43.39;98469.59;5051973;28;20559;-80
2021/08/25 09:35:47;;;;;;;5.60;3.90;;;;;;;25.66;44.53;98466.91;5054142;28;20191;-81
2021/08/25 09:38:19;;;;;;;6.73;4.83;;;;;;;26.50;42.95;98474.56;5051497;28;20205;-79
2021/08/25 09:40:47;;;;;;;5.23;4.20;;;;;;;26.09;44.27;98465.19;5053416;28;20208;-77
2021/08/25 09:43:33;;;;;;;5.53;4.23;;;;;;;26.33;42.15;98468.72;5055881;28;20822;-76
2021/08/25 09:46:08;;;;;;;6.37;4.63;;;;;;;24.71;48.48;98456.59;5053465;28;20233;-78
2021/08/25 09:48:39;;;;;;;4.80;4.07;;;;;;;25.94;44.79;98455.19;5038345;28;20204;-78
2021/08/25 09:51:08;;;;;;;8.63;3.93;;;;;;;24.65;46.97;98462.34;5045563;28;20217;-76
2021/08/25 09:53:36;;;;;;;5.63;3.80;;;;;;;26.65;42.08;98463.47;5057272;28;20205;-73
2021/08/25 09:56:18;;;;;;;7.73;4.57;;;;;;;27.37;40.22;98463.81;5047378;28;20676;-76
2021/08/25 09:58:47;;;;;;;5.03;3.53;;;;;;;25.99;40.87;98457.06;5053101;28;20194;-76
2021/08/25 10:01:15;;;;;;;5.43;3.60;;;;;;;26.91;41.01;98456.53;5066432;28;20225;-84
2021/08/25 10:03:43;;;;;;;7.10;4.03;;;;;;;26.61;41.43;98452.25;5058239;28;20214;-82
2021/08/25 10:06:10;;;;;;;6.53;3.80;;;;;;;25.51;43.45;98444.34;5059076;28;20632;-85
2021/08/25 10:08:37;;;;;;;6.10;3.70;;;;;;;26.81;40.59;98448.47;5067648;28;20197;-83
2021/08/25 10:11:07;;;;;;;6.07;3.90;;;;;;;27.98;37.21;98472.69;5058818;28;20195;-82
2021/08/25 10:13:35;;;;;;;4.40;4.00;;;;;;;24.84;43.87;98449.69;5049491;28;20265;-82
2021/08/25 10:16:04;;;;;;;6.40;3.33;;;;;;;26.52;41.65;98448.53;5062122;28;20204;-76
2021/08/25 10:18:37;;;;;;;4.17;3.33;;;;;;;26.41;40.44;98459.88;5053621;28;20210;-82
2021/08/25 10:21:25;;;;;;;4.43;3.63;;;;;;;24.75;42.02;98462.28;5048026;28;20198;-84
2021/08/25 10:24:04;;;;;;;4.67;3.80;;;;;;;25.67;41.10;98452.13;5064710;28;20201;-82
2021/08/25 10:26:33;;;;;;;4.77;3.17;;;;;;;26.98;37.38;98451.50;5060105;28;20323;-80
2021/08/25 10:29:04;;;;;;;5.73;3.27;;;;;;;26.85;37.60;98455.78;5078998;28;20222;-77
2021/08/25 10:32:13;;;;;;;4.07;3.00;;;;;;;27.31;34.13;98464.22;5069460;28;20233;-79
2021/08/25 10:34:40;;;;;;;4.60;3.20;;;;;;;28.98;31.66;98476.25;5053835;28;20577;-77
2021/08/25 10:37:30;;;;;;;5.10;3.20;;;;;;;27.92;34.16;98467.63;5066166;28;20208;-81
2021/08/25 10:40:00;;;;;;;6.27;3.57;;;;;;;27.51;34.02;98459.22;5063133;28;20205;-78
2021/08/25 10:42:50;;;;;;;5.90;2.93;;;;;;;26.85;33.09;98455.78;5071379;28;20325;-81
2021/08/25 10:45:34;;;;;;;5.00;3.33;;;;;;;27.86;33.18;98452.34;5072473;28;20262;-80
2021/08/25 10:48:03;;;;;;;6.77;3.30;;;;;;;27.05;32.71;98446.50;5067467;28;20240;-79
2021/08/25 10:50:50;;;;;;;5.20;2.80;;;;;;;27.77;32.41;98432.97;5053637;28;20213;-82
2021/08/25 10:53:36;;;;;;;4.80;3.20;;;;;;;26.72;33.34;98437.34;5048983;28;20305;-79
2021/08/25 10:56:06;;;;;;;5.67;3.33;;;;;;;28.36;31.86;98433.00;5060948;28;20199;-77
2021/08/25 10:58:43;;;;;;;4.53;3.13;;;;;;;26.32;33.50;98431.53;5057091;28;20207;-82
2021/08/25 11:01:22;;;;;;;6.60;3.40;;;;;;;26.71;31.88;98430.22;5059124;28;20319;-75
2021/08/25 11:03:50;;;;;;;5.77;3.30;;;;;;;26.57;32.11;98431.25;5061776;28;20217;-79
2021/08/25 11:06:35;;;;;;;4.93;3.07;;;;;;;26.71;33.09;98421.22;5065733;28;20240;-83
2021/08/25 11:09:25;;;;;;;5.47;3.57;;;;;;;27.55;32.22;98426.50;5059976;28;20202;-84
2021/08/25 11:12:01;;;;;;;4.53;2.93;;;;;;;27.81;34.18;98417.59;5066318;28;20314;-77
2021/08/25 11:14:37;;;;;;;6.80;3.63;;;;;;;27.27;34.21;98409.16;5054200;28;20207;-78
2021/08/25 11:17:07;;;;;;;4.00;3.20;;;;;;;26.84;36.50;98404.03;5053531;28;20209;-79
2021/08/25 11:19:39;;;;;;;5.63;3.57;;;;;;;27.04;36.23;98388.13;5063393;28;20237;-73
2021/08/25 11:22:08;;;;;;;6.07;3.30;;;;;;;26.16;37.54;98395.31;5061727;28;20306;-80
2021/08/25 11:24:38;;;;;;;5.43;3.20;;;;;;;27.71;35.53;98393.03;5059008;28;20693;-75
2021/08/25 11:27:17;;;;;;;4.80;3.63;;;;;;;26.54;35.77;98398.94;5059660;28;20258;-75
2021/08/25 11:29:44;;;;;;;7.50;3.50;;;;;;;27.10;36.06;98381.44;5061364;28;20355;-75
2021/08/25 11:32:13;;;;;;;4.27;3.30;;;;;;;27.56;35.17;98396.06;5056379;28;20257;-74
2021/08/25 11:34:44;;;;;;;4.17;3.10;;;;;;;27.37;34.35;98389.78;5059864;28;20612;-78